sensor_id;sensor_type;location;lat;lon;timestamp;temperature;humidity
4643;DHT22;2334;48.710;9.622;2023-04-24T00:02:06;11.00;99.90
4643;DHT22;2334;48.710;9.622;2023-04-24T00:04:37;11.00;99.90
4643;DHT22;2334;48.710;9.622;2023-04-24T00:07:05;11.10;99.90
4643;DHT22;2334;48.710;9.622;2023-04-24T00:09:32;11.00;99.90
4643;DHT22;2334;48.710;9.622;2023-04-24T00:11:59;10.90;99.90
4643;DHT22;2334;48.710;9.622;2023-04-24T00:14:28;10.70;99.90
4643;DHT22;2334;48.710;9.622;2023-04-24T00:16:54;10.70;99.90
4643;DHT22;2334;48.710;9.622;2023-04-24T00:19:21;10.70;99.90
4643;DHT22;2334;48.710;9.622;2023-04-24T00:21:50;10.70;99.90
4643;DHT22;2334;48.710;9.622;2023-04-24T00:24:17;10.70;99.90
4643;DHT22;2334;48.710;9.622;2023-04-24T00:26:44;10.70;99.90
4643;DHT22;2334;48.710;9.622;2023-04-24T00:29:11;10.70;99.90
4643;DHT22;2334;48.710;9.622;2023-04-24T00:31:38;10.80;99.90
4643;DHT22;2334;48.710;9.622;2023-04-24T00:34:05;10.80;99.90
4643;DHT22;2334;48.710;9.622;2023-04-24T00:36:33;10.80;99.90
4643;DHT22;2334;48.710;9.622;2023-04-24T00:39:02;10.80;99.90
4643;DHT22;2334;48.710;9.622;2023-04-24T00:41:29;10.70;99.90
4643;DHT22;2334;48.710;9.622;2023-04-24T00:43:56;10.70;99.90
4643;DHT22;2334;48.710;9.622;2023-04-24T00:46:23;10.80;99.90
4643;DHT22;2334;48.710;9.622;2023-04-24T00:48:50;10.70;99.90
4643;DHT22;2334;48.710;9.622;2023-04-24T00:51:17;10.70;99.90
4643;DHT22;2334;48.710;9.622;2023-04-24T00:53:45;10.70;99.90
4643;DHT22;2334;48.710;9.622;2023-04-24T00:56:14;10.70;99.90
4643;DHT22;2334;48.710;9.622;2023-04-24T00:58:41;10.70;99.90
4643;DHT22;2334;48.710;9.622;2023-04-24T01:01:09;10.60;99.90
4643;DHT22;2334;48.710;9.622;2023-04-24T01:03:37;10.60;99.90
4643;DHT22;2334;48.710;9.622;2023-04-24T01:06:05;10.60;99.90
4643;DHT22;2334;48.710;9.622;2023-04-24T01:08:33;10.60;99.90
4643;DHT22;2334;48.710;9.622;2023-04-24T01:11:03;10.60;99.90
4643;DHT22;2334;48.710;9.622;2023-04-24T01:13:33;10.60;99.90
4643;DHT22;2334;48.710;9.622;2023-04-24T01:16:00;10.70;99.90
4643;DHT22;2334;48.710;9.622;2023-04-24T01:18:27;10.70;99.90
4643;DHT22;2334;48.710;9.622;2023-04-24T01:20:57;10.70;99.90
4643;DHT22;2334;48.710;9.622;2023-04-24T01:23:26;10.70;99.90
4643;DHT22;2334;48.710;9.622;2023-04-24T01:25:53;10.70;99.90
4643;DHT22;2334;48.710;9.622;2023-04-24T01:28:19;10.70;99.90
4643;DHT22;2334;48.710;9.622;2023-04-24T01:30:46;10.60;99.90
4643;DHT22;2334;48.710;9.622;2023-04-24T01:33:13;10.60;99.90
4643;DHT22;2334;48.710;9.622;2023-04-24T01:35:40;10.50;99.90
4643;DHT22;2334;48.710;9.622;2023-04-24T01:38:07;10.60;99.90
4643;DHT22;2334;48.710;9.622;2023-04-24T01:40:36;10.60;99.90
4643;DHT22;2334;48.710;9.622;2023-04-24T01:43:03;10.60;99.90
4643;DHT22;2334;48.710;9.622;2023-04-24T01:45:30;10.70;99.90
4643;DHT22;2334;48.710;9.622;2023-04-24T01:47:57;10.60;99.90
4643;DHT22;2334;48.710;9.622;2023-04-24T01:50:24;10.60;99.90
4643;DHT22;2334;48.710;9.622;2023-04-24T01:52:51;10.60;99.90
4643;DHT22;2334;48.710;9.622;2023-04-24T01:55:18;10.60;99.90
4643;DHT22;2334;48.710;9.622;2023-04-24T01:57:46;10.60;99.90
4643;DHT22;2334;48.710;9.622;2023-04-24T02:00:13;10.70;99.90
4643;DHT22;2334;48.710;9.622;2023-04-24T02:02:41;10.70;99.90
4643;DHT22;2334;48.710;9.622;2023-04-24T02:05:08;10.70;99.90
4643;DHT22;2334;48.710;9.622;2023-04-24T02:07:36;10.60;99.90
4643;DHT22;2334;48.710;9.622;2023-04-24T02:10:04;10.40;99.90
4643;DHT22;2334;48.710;9.622;2023-04-24T02:12:31;10.30;99.90
4643;DHT22;2334;48.710;9.622;2023-04-24T02:14:59;10.30;99.90
4643;DHT22;2334;48.710;9.622;2023-04-24T02:17:26;10.40;99.90
4643;DHT22;2334;48.710;9.622;2023-04-24T02:19:53;10.40;99.90
4643;DHT22;2334;48.710;9.622;2023-04-24T02:22:20;10.40;99.90
4643;DHT22;2334;48.710;9.622;2023-04-24T02:24:47;10.50;99.90
4643;DHT22;2334;48.710;9.622;2023-04-24T02:27:14;10.50;99.90
4643;DHT22;2334;48.710;9.622;2023-04-24T02:29:41;10.50;99.90
4643;DHT22;2334;48.710;9.622;2023-04-24T02:32:09;10.50;99.90
4643;DHT22;2334;48.710;9.622;2023-04-24T02:34:37;10.40;99.90
4643;DHT22;2334;48.710;9.622;2023-04-24T02:37:04;10.40;99.90
4643;DHT22;2334;48.710;9.622;2023-04-24T02:39:31;10.50;99.90
4643;DHT22;2334;48.710;9.622;2023-04-24T02:41:58;10.50;99.90
4643;DHT22;2334;48.710;9.622;2023-04-24T02:44:25;10.40;99.90
4643;DHT22;2334;48.710;9.622;2023-04-24T02:46:52;10.40;99.90
4643;DHT22;2334;48.710;9.622;2023-04-24T02:49:20;10.40;99.90
4643;DHT22;2334;48.710;9.622;2023-04-24T02:51:47;10.40;99.90
4643;DHT22;2334;48.710;9.622;2023-04-24T02:54:14;10.40;99.90
4643;DHT22;2334;48.710;9.622;2023-04-24T02:56:41;10.40;99.90
4643;DHT22;2334;48.710;9.622;2023-04-24T02:59:08;10.40;99.90
4643;DHT22;2334;48.710;9.622;2023-04-24T03:01:35;10.40;99.90
4643;DHT22;2334;48.710;9.622;2023-04-24T03:04:02;10.30;99.90
4643;DHT22;2334;48.710;9.622;2023-04-24T03:06:31;10.30;99.90
4643;DHT22;2334;48.710;9.622;2023-04-24T03:09:01;10.30;99.90
4643;DHT22;2334;48.710;9.622;2023-04-24T03:11:28;10.30;99.90
4643;DHT22;2334;48.710;9.622;2023-04-24T03:13:55;10.30;99.90
4643;DHT22;2334;48.710;9.622;2023-04-24T03:16:22;10.30;99.90
4643;DHT22;2334;48.710;9.622;2023-04-24T03:18:49;10.30;99.90
4643;DHT22;2334;48.710;9.622;2023-04-24T03:21:16;10.30;99.90
4643;DHT22;2334;48.710;9.622;2023-04-24T03:23:44;10.30;99.90
4643;DHT22;2334;48.710;9.622;2023-04-24T03:26:11;10.30;99.90
4643;DHT22;2334;48.710;9.622;2023-04-24T03:28:38;10.20;99.90
4643;DHT22;2334;48.710;9.622;2023-04-24T03:31:05;10.20;99.90
4643;DHT22;2334;48.710;9.622;2023-04-24T03:33:31;10.20;99.90
4643;DHT22;2334;48.710;9.622;2023-04-24T03:35:58;10.20;99.90
4643;DHT22;2334;48.710;9.622;2023-04-24T03:38:25;10.20;99.90
4643;DHT22;2334;48.710;9.622;2023-04-24T03:40:53;10.20;99.90
4643;DHT22;2334;48.710;9.622;2023-04-24T03:43:20;10.30;99.90
4643;DHT22;2334;48.710;9.622;2023-04-24T03:45:47;10.30;99.90
4643;DHT22;2334;48.710;9.622;2023-04-24T03:48:14;10.30;99.90
4643;DHT22;2334;48.710;9.622;2023-04-24T03:50:41;10.30;99.90
4643;DHT22;2334;48.710;9.622;2023-04-24T03:53:08;10.20;99.90
4643;DHT22;2334;48.710;9.622;2023-04-24T03:55:34;10.20;99.90
4643;DHT22;2334;48.710;9.622;2023-04-24T03:58:03;10.20;99.90
4643;DHT22;2334;48.710;9.622;2023-04-24T04:00:30;10.20;99.90
4643;DHT22;2334;48.710;9.622;2023-04-24T04:02:58;10.20;99.90
4643;DHT22;2334;48.710;9.622;2023-04-24T04:05:25;10.20;99.90
4643;DHT22;2334;48.710;9.622;2023-04-24T04:07:52;10.20;99.90
4643;DHT22;2334;48.710;9.622;2023-04-24T04:10:19;10.30;99.90
4643;DHT22;2334;48.710;9.622;2023-04-24T04:12:46;10.20;99.90
4643;DHT22;2334;48.710;9.622;2023-04-24T04:15:14;10.20;99.90
4643;DHT22;2334;48.710;9.622;2023-04-24T04:17:41;10.20;99.90
4643;DHT22;2334;48.710;9.622;2023-04-24T04:20:09;10.20;99.90
4643;DHT22;2334;48.710;9.622;2023-04-24T04:22:36;10.20;99.90
4643;DHT22;2334;48.710;9.622;2023-04-24T04:25:03;10.30;99.90
4643;DHT22;2334;48.710;9.622;2023-04-24T04:27:31;10.20;99.90
4643;DHT22;2334;48.710;9.622;2023-04-24T04:29:58;10.30;99.90
4643;DHT22;2334;48.710;9.622;2023-04-24T04:32:31;10.30;99.90
4643;DHT22;2334;48.710;9.622;2023-04-24T04:35:00;10.20;99.90
4643;DHT22;2334;48.710;9.622;2023-04-24T04:37:28;10.10;99.90
4643;DHT22;2334;48.710;9.622;2023-04-24T04:39:55;10.10;99.90
4643;DHT22;2334;48.710;9.622;2023-04-24T04:42:23;10.10;99.90
4643;DHT22;2334;48.710;9.622;2023-04-24T04:44:50;10.10;99.90
4643;DHT22;2334;48.710;9.622;2023-04-24T04:47:17;10.10;99.90
4643;DHT22;2334;48.710;9.622;2023-04-24T04:49:45;10.20;99.90
4643;DHT22;2334;48.710;9.622;2023-04-24T04:52:12;10.20;99.90
4643;DHT22;2334;48.710;9.622;2023-04-24T04:54:39;10.20;99.90
4643;DHT22;2334;48.710;9.622;2023-04-24T04:57:06;10.20;99.90
4643;DHT22;2334;48.710;9.622;2023-04-24T04:59:33;10.30;99.90
4643;DHT22;2334;48.710;9.622;2023-04-24T05:02:00;10.20;99.90
4643;DHT22;2334;48.710;9.622;2023-04-24T05:04:27;10.30;99.90
4643;DHT22;2334;48.710;9.622;2023-04-24T05:06:55;10.30;99.90
4643;DHT22;2334;48.710;9.622;2023-04-24T05:09:22;10.30;99.90
4643;DHT22;2334;48.710;9.622;2023-04-24T05:11:52;10.30;99.90
4643;DHT22;2334;48.710;9.622;2023-04-24T05:14:19;10.40;99.90
4643;DHT22;2334;48.710;9.622;2023-04-24T05:16:47;10.20;99.90
4643;DHT22;2334;48.710;9.622;2023-04-24T05:19:14;10.00;99.90
4643;DHT22;2334;48.710;9.622;2023-04-24T05:21:41;10.00;99.90
4643;DHT22;2334;48.710;9.622;2023-04-24T05:24:09;9.90;99.90
4643;DHT22;2334;48.710;9.622;2023-04-24T05:26:36;9.80;99.90
4643;DHT22;2334;48.710;9.622;2023-04-24T05:29:03;9.70;99.90
4643;DHT22;2334;48.710;9.622;2023-04-24T05:31:30;9.70;99.90
4643;DHT22;2334;48.710;9.622;2023-04-24T05:33:57;9.70;99.90
4643;DHT22;2334;48.710;9.622;2023-04-24T05:36:24;9.60;99.90
4643;DHT22;2334;48.710;9.622;2023-04-24T05:38:52;9.50;99.90
4643;DHT22;2334;48.710;9.622;2023-04-24T05:41:20;9.40;99.90
4643;DHT22;2334;48.710;9.622;2023-04-24T05:43:48;9.30;99.90
4643;DHT22;2334;48.710;9.622;2023-04-24T05:46:14;9.30;99.90
4643;DHT22;2334;48.710;9.622;2023-04-24T05:48:41;9.30;99.90
4643;DHT22;2334;48.710;9.622;2023-04-24T05:51:09;9.40;99.90
4643;DHT22;2334;48.710;9.622;2023-04-24T05:53:36;9.30;99.90
4643;DHT22;2334;48.710;9.622;2023-04-24T05:56:03;9.40;99.90
4643;DHT22;2334;48.710;9.622;2023-04-24T05:58:31;9.40;99.90
4643;DHT22;2334;48.710;9.622;2023-04-24T06:00:58;9.30;99.90
4643;DHT22;2334;48.710;9.622;2023-04-24T06:03:26;9.40;99.90
4643;DHT22;2334;48.710;9.622;2023-04-24T06:05:54;9.40;99.90
4643;DHT22;2334;48.710;9.622;2023-04-24T06:08:21;9.50;99.90
4643;DHT22;2334;48.710;9.622;2023-04-24T06:10:48;9.50;99.90
4643;DHT22;2334;48.710;9.622;2023-04-24T06:13:15;9.50;99.90
4643;DHT22;2334;48.710;9.622;2023-04-24T06:15:43;9.50;99.90
4643;DHT22;2334;48.710;9.622;2023-04-24T06:18:10;9.50;99.90
4643;DHT22;2334;48.710;9.622;2023-04-24T06:20:38;9.50;99.90
4643;DHT22;2334;48.710;9.622;2023-04-24T06:23:05;9.50;99.90
4643;DHT22;2334;48.710;9.622;2023-04-24T06:25:32;9.50;99.90
4643;DHT22;2334;48.710;9.622;2023-04-24T06:27:59;9.50;99.90
4643;DHT22;2334;48.710;9.622;2023-04-24T06:30:27;9.60;99.90
4643;DHT22;2334;48.710;9.622;2023-04-24T06:32:55;9.70;99.90
4643;DHT22;2334;48.710;9.622;2023-04-24T06:35:23;9.70;99.90
4643;DHT22;2334;48.710;9.622;2023-04-24T06:37:50;9.80;99.90
4643;DHT22;2334;48.710;9.622;2023-04-24T06:40:17;9.90;99.90
4643;DHT22;2334;48.710;9.622;2023-04-24T06:42:45;10.00;99.90
4643;DHT22;2334;48.710;9.622;2023-04-24T06:45:13;10.10;99.90
4643;DHT22;2334;48.710;9.622;2023-04-24T06:47:42;10.10;99.90
4643;DHT22;2334;48.710;9.622;2023-04-24T06:50:15;10.20;99.90
4643;DHT22;2334;48.710;9.622;2023-04-24T06:52:42;10.30;99.90
4643;DHT22;2334;48.710;9.622;2023-04-24T06:55:09;10.30;99.90
4643;DHT22;2334;48.710;9.622;2023-04-24T06:57:37;10.40;99.90
4643;DHT22;2334;48.710;9.622;2023-04-24T07:00:04;10.50;99.90
4643;DHT22;2334;48.710;9.622;2023-04-24T07:02:32;10.60;99.90
4643;DHT22;2334;48.710;9.622;2023-04-24T07:04:59;10.90;99.90
4643;DHT22;2334;48.710;9.622;2023-04-24T07:07:28;11.20;99.90
4643;DHT22;2334;48.710;9.622;2023-04-24T07:09:55;11.40;99.90
4643;DHT22;2334;48.710;9.622;2023-04-24T07:12:21;11.30;99.90
4643;DHT22;2334;48.710;9.622;2023-04-24T07:14:48;11.40;99.90
4643;DHT22;2334;48.710;9.622;2023-04-24T07:17:15;11.40;99.90
4643;DHT22;2334;48.710;9.622;2023-04-24T07:19:42;11.50;99.90
4643;DHT22;2334;48.710;9.622;2023-04-24T07:22:09;11.50;99.90
4643;DHT22;2334;48.710;9.622;2023-04-24T07:24:43;11.70;99.90
4643;DHT22;2334;48.710;9.622;2023-04-24T07:27:13;11.80;99.90
4643;DHT22;2334;48.710;9.622;2023-04-24T07:29:40;12.00;99.90
4643;DHT22;2334;48.710;9.622;2023-04-24T07:32:07;12.10;99.90
4643;DHT22;2334;48.710;9.622;2023-04-24T07:34:34;12.00;99.90
4643;DHT22;2334;48.710;9.622;2023-04-24T07:37:01;12.00;99.90
4643;DHT22;2334;48.710;9.622;2023-04-24T07:39:28;12.20;99.90
4643;DHT22;2334;48.710;9.622;2023-04-24T07:41:57;12.30;99.90
4643;DHT22;2334;48.710;9.622;2023-04-24T07:44:25;12.20;99.90
4643;DHT22;2334;48.710;9.622;2023-04-24T07:46:52;12.00;99.90
4643;DHT22;2334;48.710;9.622;2023-04-24T07:49:19;12.00;99.90
4643;DHT22;2334;48.710;9.622;2023-04-24T07:51:46;11.70;99.90
4643;DHT22;2334;48.710;9.622;2023-04-24T07:54:13;11.70;99.90
4643;DHT22;2334;48.710;9.622;2023-04-24T07:56:41;11.50;99.90
4643;DHT22;2334;48.710;9.622;2023-04-24T07:59:10;11.50;99.90
4643;DHT22;2334;48.710;9.622;2023-04-24T08:01:37;11.50;99.90
4643;DHT22;2334;48.710;9.622;2023-04-24T08:04:04;11.30;99.90
4643;DHT22;2334;48.710;9.622;2023-04-24T08:06:31;11.10;99.90
4643;DHT22;2334;48.710;9.622;2023-04-24T08:08:58;11.00;99.90
4643;DHT22;2334;48.710;9.622;2023-04-24T08:11:25;10.60;99.90
4643;DHT22;2334;48.710;9.622;2023-04-24T08:13:52;10.20;99.90
4643;DHT22;2334;48.710;9.622;2023-04-24T08:16:21;9.90;99.90
4643;DHT22;2334;48.710;9.622;2023-04-24T08:18:49;9.90;99.90
4643;DHT22;2334;48.710;9.622;2023-04-24T08:21:16;10.00;99.90
4643;DHT22;2334;48.710;9.622;2023-04-24T08:23:44;10.10;99.90
4643;DHT22;2334;48.710;9.622;2023-04-24T08:26:11;10.50;99.90
4643;DHT22;2334;48.710;9.622;2023-04-24T08:28:38;10.90;99.90
4643;DHT22;2334;48.710;9.622;2023-04-24T08:31:05;10.90;99.90
4643;DHT22;2334;48.710;9.622;2023-04-24T08:33:33;11.10;99.90
4643;DHT22;2334;48.710;9.622;2023-04-24T08:36:01;11.50;99.90
4643;DHT22;2334;48.710;9.622;2023-04-24T08:38:28;11.70;99.90
4643;DHT22;2334;48.710;9.622;2023-04-24T08:40:57;11.80;99.90
4643;DHT22;2334;48.710;9.622;2023-04-24T08:43:25;11.80;99.90
4643;DHT22;2334;48.710;9.622;2023-04-24T08:45:52;11.80;99.90
4643;DHT22;2334;48.710;9.622;2023-04-24T08:48:20;11.80;99.90
4643;DHT22;2334;48.710;9.622;2023-04-24T08:50:50;11.70;99.90
4643;DHT22;2334;48.710;9.622;2023-04-24T08:53:18;11.50;99.90
4643;DHT22;2334;48.710;9.622;2023-04-24T08:55:47;11.40;99.90
4643;DHT22;2334;48.710;9.622;2023-04-24T08:58:16;11.40;99.90
4643;DHT22;2334;48.710;9.622;2023-04-24T09:00:43;11.40;99.90
4643;DHT22;2334;48.710;9.622;2023-04-24T09:03:13;11.40;99.90
4643;DHT22;2334;48.710;9.622;2023-04-24T09:05:41;11.50;99.90
4643;DHT22;2334;48.710;9.622;2023-04-24T09:08:13;11.50;99.90
4643;DHT22;2334;48.710;9.622;2023-04-24T09:10:41;11.80;99.90
4643;DHT22;2334;48.710;9.622;2023-04-24T09:13:08;12.00;99.90
4643;DHT22;2334;48.710;9.622;2023-04-24T09:15:36;12.00;99.90
4643;DHT22;2334;48.710;9.622;2023-04-24T09:18:04;11.80;99.90
4643;DHT22;2334;48.710;9.622;2023-04-24T09:20:31;12.10;99.90
4643;DHT22;2334;48.710;9.622;2023-04-24T09:22:58;12.20;99.90
4643;DHT22;2334;48.710;9.622;2023-04-24T09:25:31;12.40;99.90
4643;DHT22;2334;48.710;9.622;2023-04-24T09:28:01;12.40;99.90
4643;DHT22;2334;48.710;9.622;2023-04-24T09:30:28;12.50;99.90
4643;DHT22;2334;48.710;9.622;2023-04-24T09:33:10;12.80;99.90
4643;DHT22;2334;48.710;9.622;2023-04-24T09:35:40;12.80;99.90
4643;DHT22;2334;48.710;9.622;2023-04-24T09:38:08;12.80;99.90
4643;DHT22;2334;48.710;9.622;2023-04-24T09:40:36;12.80;99.90
4643;DHT22;2334;48.710;9.622;2023-04-24T09:43:03;12.60;99.90
4643;DHT22;2334;48.710;9.622;2023-04-24T09:45:35;12.50;99.90
4643;DHT22;2334;48.710;9.622;2023-04-24T09:48:03;12.60;99.90
4643;DHT22;2334;48.710;9.622;2023-04-24T09:50:32;12.60;99.90
4643;DHT22;2334;48.710;9.622;2023-04-24T09:53:02;12.70;99.90
4643;DHT22;2334;48.710;9.622;2023-04-24T09:55:30;12.80;99.90
4643;DHT22;2334;48.710;9.622;2023-04-24T09:58:00;13.20;99.90
4643;DHT22;2334;48.710;9.622;2023-04-24T10:00:28;13.00;99.90
4643;DHT22;2334;48.710;9.622;2023-04-24T10:02:56;12.70;99.90
4643;DHT22;2334;48.710;9.622;2023-04-24T10:05:26;12.70;99.90
4643;DHT22;2334;48.710;9.622;2023-04-24T10:07:57;12.90;99.90
4643;DHT22;2334;48.710;9.622;2023-04-24T10:10:24;12.80;99.90
4643;DHT22;2334;48.710;9.622;2023-04-24T10:12:51;13.00;99.90
4643;DHT22;2334;48.710;9.622;2023-04-24T10:15:20;13.20;99.90
4643;DHT22;2334;48.710;9.622;2023-04-24T10:17:48;13.10;99.90
4643;DHT22;2334;48.710;9.622;2023-04-24T10:20:19;13.00;99.90
4643;DHT22;2334;48.710;9.622;2023-04-24T10:22:48;13.10;99.90
4643;DHT22;2334;48.710;9.622;2023-04-24T10:25:19;13.00;99.90
4643;DHT22;2334;48.710;9.622;2023-04-24T10:27:46;13.40;99.90
4643;DHT22;2334;48.710;9.622;2023-04-24T10:30:14;14.00;99.90
4643;DHT22;2334;48.710;9.622;2023-04-24T10:32:43;14.10;99.90
4643;DHT22;2334;48.710;9.622;2023-04-24T10:35:10;14.30;99.90
4643;DHT22;2334;48.710;9.622;2023-04-24T10:37:40;14.60;99.90
4643;DHT22;2334;48.710;9.622;2023-04-24T10:40:09;14.70;99.90
4643;DHT22;2334;48.710;9.622;2023-04-24T10:42:40;14.10;99.90
4643;DHT22;2334;48.710;9.622;2023-04-24T10:45:16;13.70;99.90
4643;DHT22;2334;48.710;9.622;2023-04-24T10:47:52;13.40;99.90
4643;DHT22;2334;48.710;9.622;2023-04-24T10:50:20;13.20;99.90
4643;DHT22;2334;48.710;9.622;2023-04-24T10:52:47;13.20;99.90
4643;DHT22;2334;48.710;9.622;2023-04-24T10:55:40;13.10;99.90
4643;DHT22;2334;48.710;9.622;2023-04-24T10:58:07;13.60;99.90
4643;DHT22;2334;48.710;9.622;2023-04-24T11:00:36;14.30;99.90
4643;DHT22;2334;48.710;9.622;2023-04-24T11:03:06;14.80;99.90
4643;DHT22;2334;48.710;9.622;2023-04-24T11:05:51;15.10;99.90
4643;DHT22;2334;48.710;9.622;2023-04-24T11:08:29;14.60;99.90
4643;DHT22;2334;48.710;9.622;2023-04-24T11:11:02;14.50;99.90
4643;DHT22;2334;48.710;9.622;2023-04-24T11:14:01;14.70;99.90
4643;DHT22;2334;48.710;9.622;2023-04-24T11:16:29;14.60;99.90
4643;DHT22;2334;48.710;9.622;2023-04-24T11:19:03;14.70;99.90
4643;DHT22;2334;48.710;9.622;2023-04-24T11:21:40;15.20;99.90
4643;DHT22;2334;48.710;9.622;2023-04-24T11:24:24;14.80;99.90
4643;DHT22;2334;48.710;9.622;2023-04-24T11:26:53;14.40;99.90
4643;DHT22;2334;48.710;9.622;2023-04-24T11:29:22;14.40;99.90
4643;DHT22;2334;48.710;9.622;2023-04-24T11:32:17;13.80;99.90
4643;DHT22;2334;48.710;9.622;2023-04-24T11:34:47;13.60;99.90
4643;DHT22;2334;48.710;9.622;2023-04-24T11:37:15;13.50;99.90
4643;DHT22;2334;48.710;9.622;2023-04-24T11:39:42;13.30;99.90
4643;DHT22;2334;48.710;9.622;2023-04-24T11:42:09;13.30;99.90
4643;DHT22;2334;48.710;9.622;2023-04-24T11:44:36;13.30;99.90
4643;DHT22;2334;48.710;9.622;2023-04-24T11:47:04;13.10;99.90
4643;DHT22;2334;48.710;9.622;2023-04-24T11:49:32;12.90;99.90
4643;DHT22;2334;48.710;9.622;2023-04-24T11:52:01;12.80;99.90
4643;DHT22;2334;48.710;9.622;2023-04-24T11:54:28;12.80;99.90
4643;DHT22;2334;48.710;9.622;2023-04-24T11:56:56;12.80;99.90
4643;DHT22;2334;48.710;9.622;2023-04-24T11:59:23;12.60;99.90
4643;DHT22;2334;48.710;9.622;2023-04-24T12:01:50;12.50;99.90
4643;DHT22;2334;48.710;9.622;2023-04-24T12:04:18;12.50;99.90
4643;DHT22;2334;48.710;9.622;2023-04-24T12:07:02;12.60;99.90
4643;DHT22;2334;48.710;9.622;2023-04-24T12:09:40;12.50;99.90
4643;DHT22;2334;48.710;9.622;2023-04-24T12:12:11;12.50;99.90
4643;DHT22;2334;48.710;9.622;2023-04-24T12:14:52;12.50;99.90
4643;DHT22;2334;48.710;9.622;2023-04-24T12:17:24;12.50;99.90
4643;DHT22;2334;48.710;9.622;2023-04-24T12:19:52;12.60;99.90
4643;DHT22;2334;48.710;9.622;2023-04-24T12:22:20;12.80;99.90
4643;DHT22;2334;48.710;9.622;2023-04-24T12:25:01;12.60;99.90
4643;DHT22;2334;48.710;9.622;2023-04-24T12:27:31;12.80;99.90
4643;DHT22;2334;48.710;9.622;2023-04-24T12:30:03;12.60;99.90
4643;DHT22;2334;48.710;9.622;2023-04-24T12:32:31;12.60;99.90
4643;DHT22;2334;48.710;9.622;2023-04-24T12:34:58;12.50;99.90
4643;DHT22;2334;48.710;9.622;2023-04-24T12:37:32;12.50;99.90
4643;DHT22;2334;48.710;9.622;2023-04-24T12:40:03;12.50;99.90
4643;DHT22;2334;48.710;9.622;2023-04-24T12:42:33;12.70;99.90
4643;DHT22;2334;48.710;9.622;2023-04-24T12:45:01;12.60;99.90
4643;DHT22;2334;48.710;9.622;2023-04-24T12:47:29;12.70;99.90
4643;DHT22;2334;48.710;9.622;2023-04-24T12:49:55;12.70;99.90
4643;DHT22;2334;48.710;9.622;2023-04-24T12:52:22;12.60;99.90
4643;DHT22;2334;48.710;9.622;2023-04-24T12:54:53;12.70;99.90
4643;DHT22;2334;48.710;9.622;2023-04-24T12:57:20;12.80;99.90
4643;DHT22;2334;48.710;9.622;2023-04-24T12:59:47;13.00;99.90
4643;DHT22;2334;48.710;9.622;2023-04-24T13:02:14;13.00;99.90
4643;DHT22;2334;48.710;9.622;2023-04-24T13:04:44;12.80;99.90
4643;DHT22;2334;48.710;9.622;2023-04-24T13:07:11;12.90;99.90
4643;DHT22;2334;48.710;9.622;2023-04-24T13:09:39;12.60;99.90
4643;DHT22;2334;48.710;9.622;2023-04-24T13:12:08;12.50;99.90
4643;DHT22;2334;48.710;9.622;2023-04-24T13:14:35;12.60;99.90
4643;DHT22;2334;48.710;9.622;2023-04-24T13:17:02;12.80;99.90
4643;DHT22;2334;48.710;9.622;2023-04-24T13:19:29;12.90;99.90
4643;DHT22;2334;48.710;9.622;2023-04-24T13:21:56;13.00;99.90
4643;DHT22;2334;48.710;9.622;2023-04-24T13:24:24;13.30;99.90
4643;DHT22;2334;48.710;9.622;2023-04-24T13:26:52;13.20;99.90
4643;DHT22;2334;48.710;9.622;2023-04-24T13:29:20;13.30;99.90
4643;DHT22;2334;48.710;9.622;2023-04-24T13:31:50;13.00;99.90
4643;DHT22;2334;48.710;9.622;2023-04-24T13:34:17;12.80;99.90
4643;DHT22;2334;48.710;9.622;2023-04-24T13:36:44;12.70;99.90
4643;DHT22;2334;48.710;9.622;2023-04-24T13:39:11;12.40;99.90
4643;DHT22;2334;48.710;9.622;2023-04-24T13:41:38;12.30;99.90
4643;DHT22;2334;48.710;9.622;2023-04-24T13:44:08;12.20;99.90
4643;DHT22;2334;48.710;9.622;2023-04-24T13:46:36;12.30;99.90
4643;DHT22;2334;48.710;9.622;2023-04-24T13:49:03;12.40;99.90
4643;DHT22;2334;48.710;9.622;2023-04-24T13:51:30;12.70;99.90
4643;DHT22;2334;48.710;9.622;2023-04-24T13:53:57;12.80;99.90
4643;DHT22;2334;48.710;9.622;2023-04-24T13:56:25;12.90;99.90
4643;DHT22;2334;48.710;9.622;2023-04-24T13:58:52;12.90;99.90
4643;DHT22;2334;48.710;9.622;2023-04-24T14:01:20;12.70;99.90
4643;DHT22;2334;48.710;9.622;2023-04-24T14:03:51;13.20;99.90
4643;DHT22;2334;48.710;9.622;2023-04-24T14:06:18;13.30;99.90
4643;DHT22;2334;48.710;9.622;2023-04-24T14:08:45;13.30;99.90
4643;DHT22;2334;48.710;9.622;2023-04-24T14:11:12;13.30;99.90
4643;DHT22;2334;48.710;9.622;2023-04-24T14:13:41;13.20;99.90
4643;DHT22;2334;48.710;9.622;2023-04-24T14:16:08;13.10;99.90
4643;DHT22;2334;48.710;9.622;2023-04-24T14:18:35;12.90;99.90
4643;DHT22;2334;48.710;9.622;2023-04-24T14:21:04;12.70;99.90
4643;DHT22;2334;48.710;9.622;2023-04-24T14:23:31;12.70;99.90
4643;DHT22;2334;48.710;9.622;2023-04-24T14:25:58;12.50;99.90
4643;DHT22;2334;48.710;9.622;2023-04-24T14:28:25;12.40;99.90
4643;DHT22;2334;48.710;9.622;2023-04-24T14:30:52;12.20;99.90
4643;DHT22;2334;48.710;9.622;2023-04-24T14:33:19;12.10;99.90
4643;DHT22;2334;48.710;9.622;2023-04-24T14:35:46;12.20;99.90
4643;DHT22;2334;48.710;9.622;2023-04-24T14:38:14;12.10;99.90
4643;DHT22;2334;48.710;9.622;2023-04-24T14:40:41;12.20;99.90
4643;DHT22;2334;48.710;9.622;2023-04-24T14:43:08;12.10;99.90
4643;DHT22;2334;48.710;9.622;2023-04-24T14:45:36;12.10;99.90
4643;DHT22;2334;48.710;9.622;2023-04-24T14:48:04;12.30;99.90
4643;DHT22;2334;48.710;9.622;2023-04-24T14:50:31;12.50;99.90
4643;DHT22;2334;48.710;9.622;2023-04-24T14:52:58;13.40;99.90
4643;DHT22;2334;48.710;9.622;2023-04-24T14:55:26;14.10;99.90
4643;DHT22;2334;48.710;9.622;2023-04-24T14:57:53;14.70;99.90
4643;DHT22;2334;48.710;9.622;2023-04-24T15:00:20;14.40;99.90
4643;DHT22;2334;48.710;9.622;2023-04-24T15:02:48;14.20;99.90
4643;DHT22;2334;48.710;9.622;2023-04-24T15:05:15;13.70;99.90
4643;DHT22;2334;48.710;9.622;2023-04-24T15:07:42;13.30;99.90
4643;DHT22;2334;48.710;9.622;2023-04-24T15:10:10;12.90;99.90
4643;DHT22;2334;48.710;9.622;2023-04-24T15:12:39;12.60;99.90
4643;DHT22;2334;48.710;9.622;2023-04-24T15:15:09;12.50;99.90
4643;DHT22;2334;48.710;9.622;2023-04-24T15:17:36;12.20;99.90
4643;DHT22;2334;48.710;9.622;2023-04-24T15:20:04;12.30;99.90
4643;DHT22;2334;48.710;9.622;2023-04-24T15:22:31;12.70;99.90
4643;DHT22;2334;48.710;9.622;2023-04-24T15:24:58;13.10;99.90
4643;DHT22;2334;48.710;9.622;2023-04-24T15:27:26;13.10;99.90
4643;DHT22;2334;48.710;9.622;2023-04-24T15:29:55;13.40;99.90
4643;DHT22;2334;48.710;9.622;2023-04-24T15:32:24;13.40;99.90
4643;DHT22;2334;48.710;9.622;2023-04-24T15:34:51;13.00;99.90
4643;DHT22;2334;48.710;9.622;2023-04-24T15:37:18;12.80;99.90
4643;DHT22;2334;48.710;9.622;2023-04-24T15:39:45;13.40;99.90
4643;DHT22;2334;48.710;9.622;2023-04-24T15:42:12;14.00;99.90
4643;DHT22;2334;48.710;9.622;2023-04-24T15:44:39;14.30;99.90
4643;DHT22;2334;48.710;9.622;2023-04-24T15:47:07;13.90;99.90
4643;DHT22;2334;48.710;9.622;2023-04-24T15:49:34;13.10;99.90
4643;DHT22;2334;48.710;9.622;2023-04-24T15:52:01;12.80;99.90
4643;DHT22;2334;48.710;9.622;2023-04-24T15:54:28;12.60;99.90
4643;DHT22;2334;48.710;9.622;2023-04-24T15:56:55;12.40;99.90
4643;DHT22;2334;48.710;9.622;2023-04-24T15:59:21;12.50;99.90
4643;DHT22;2334;48.710;9.622;2023-04-24T16:01:49;12.50;99.90
4643;DHT22;2334;48.710;9.622;2023-04-24T16:04:17;12.50;99.90
4643;DHT22;2334;48.710;9.622;2023-04-24T16:06:44;12.40;99.90
4643;DHT22;2334;48.710;9.622;2023-04-24T16:09:11;12.30;99.90